Time;durP1;ratioP1;P1;durP2;ratioP2;P2;SDS_P1;SDS_P2;PMS_P1;PMS_P2;Temp;Humidity;BMP_temperature;BMP_pressure;BME280_temperature;BME280_humidity;BME280_pressure;Samples;Min_cycle;Max_cycle;Signal;HPM_P1;HPM_P2
2022/04/22 00:00:05;;;;;;;8.70;5.07;;;;;;;12.69;80.78;101017.00;5093136;28;20387;-68
2022/04/22 00:02:30;;;;;;;6.68;5.43;;;;;;;12.54;81.75;101012.44;5092759;28;20114;-69
2022/04/22 00:04:55;;;;;;;12.75;4.65;;;;;;;12.56;81.56;101015.09;5092824;28;20118;-68
2022/04/22 00:07:21;;;;;;;6.72;4.50;;;;;;;12.66;81.09;101014.34;5092153;28;20036;-68
2022/04/22 00:09:46;;;;;;;13.23;5.43;;;;;;;12.56;81.89;101013.38;5092853;28;20024;-68
2022/04/22 00:12:11;;;;;;;11.10;4.80;;;;;;;12.51;82.18;101016.78;5091312;28;20027;-68
2022/04/22 00:14:37;;;;;;;8.88;4.95;;;;;;;12.41;82.67;101023.72;5092824;28;20040;-68
2022/04/22 00:17:02;;;;;;;10.00;5.05;;;;;;;12.40;82.54;101020.22;5092452;28;20383;-68
2022/04/22 00:19:27;;;;;;;6.88;4.90;;;;;;;12.28;83.57;101022.72;5097970;28;20398;-68
2022/04/22 00:21:53;;;;;;;8.82;4.82;;;;;;;12.39;82.80;101017.56;5090721;28;20051;-68
2022/04/22 00:24:19;;;;;;;6.97;4.93;;;;;;;12.37;83.00;101024.56;5092562;28;20035;-69
2022/04/22 00:26:44;;;;;;;6.28;4.85;;;;;;;12.18;83.53;101023.44;5092125;28;20030;-69
2022/04/22 00:29:10;;;;;;;5.82;4.80;;;;;;;12.12;83.57;101022.50;5092100;28;20095;-68
2022/04/22 00:31:35;;;;;;;11.52;5.43;;;;;;;12.20;84.23;101021.72;5081802;28;20073;-68
2022/04/22 00:34:01;;;;;;;7.63;5.15;;;;;;;12.13;83.97;101016.38;5088963;28;20099;-69
2022/04/22 00:36:26;;;;;;;8.15;4.75;;;;;;;12.17;83.76;101019.03;5091920;28;20082;-70
2022/04/22 00:38:51;;;;;;;7.32;4.93;;;;;;;12.09;84.00;101019.81;5089193;28;20388;-69
2022/04/22 00:41:17;;;;;;;7.20;4.90;;;;;;;12.03;84.07;101018.84;5091064;28;20040;-69
2022/04/22 00:43:45;;;;;;;6.22;4.53;;;;;;;12.00;84.19;101019.69;5091761;28;20028;-69
2022/04/22 00:46:11;;;;;;;10.98;4.95;;;;;;;12.02;83.97;101020.63;5089154;28;20081;-69
2022/04/22 00:48:36;;;;;;;9.25;4.80;;;;;;;11.94;84.46;101016.97;5087995;28;20024;-70
2022/04/22 00:51:06;;;;;;;8.73;4.68;;;;;;;11.96;84.01;101018.78;5092041;28;20452;-69
2022/04/22 00:53:35;;;;;;;5.97;4.47;;;;;;;11.95;84.19;101016.09;5095901;28;20470;-70
2022/04/22 00:56:02;;;;;;;9.82;4.55;;;;;;;11.99;83.74;101007.38;5095436;28;20498;-69
2022/04/22 00:58:28;;;;;;;6.75;4.60;;;;;;;11.91;84.65;101006.34;5094439;28;20028;-69
2022/04/22 01:00:53;;;;;;;7.70;4.78;;;;;;;11.96;83.72;101012.63;5095776;28;20485;-69
2022/04/22 01:03:18;;;;;;;7.65;4.45;;;;;;;11.75;85.36;101002.63;5093420;28;20020;-69
2022/04/22 01:11:13;;;;;;;10.25;4.93;;;;;;;11.69;85.73;100998.13;5096115;28;20548;-69
2022/04/22 01:13:38;;;;;;;6.95;4.60;;;;;;;11.66;85.04;100994.59;5095670;28;20110;-69
2022/04/22 01:16:04;;;;;;;11.90;5.70;;;;;;;11.66;84.74;100991.97;5094458;28;20119;-69
2022/04/22 01:18:29;;;;;;;9.02;5.28;;;;;;;11.61;85.86;100994.50;5090676;28;20040;-70
2022/04/22 01:21:03;;;;;;;8.13;5.75;;;;;;;11.67;85.73;100989.34;5094797;28;20032;-69
2022/04/22 01:23:29;;;;;;;9.80;5.60;;;;;;;11.54;85.89;100993.53;5093832;28;20039;-69
2022/04/22 01:25:56;;;;;;;9.98;5.43;;;;;;;11.60;86.04;100993.63;5093349;28;20039;-69
2022/04/22 01:28:23;;;;;;;8.77;5.63;;;;;;;11.68;85.46;100985.84;5091418;28;20023;-69
2022/04/22 01:30:48;;;;;;;8.30;5.68;;;;;;;11.59;86.43;100983.06;5095746;28;20038;-69
2022/04/22 01:33:14;;;;;;;8.70;5.93;;;;;;;11.37;87.41;100992.41;5087168;28;20020;-69
2022/04/22 01:35:39;;;;;;;6.63;5.30;;;;;;;11.37;88.72;100990.66;5094142;28;20197;-70
2022/04/22 01:38:04;;;;;;;7.32;5.78;;;;;;;11.42;88.90;100983.72;5095015;28;20028;-69
2022/04/22 01:40:30;;;;;;;10.15;5.90;;;;;;;11.42;87.88;100993.34;5093836;28;20028;-69
2022/04/22 01:42:55;;;;;;;9.90;5.90;;;;;;;11.50;87.50;100990.84;5092278;28;20074;-70
2022/04/22 01:45:21;;;;;;;6.93;5.85;;;;;;;11.37;88.13;100995.91;5093166;28;20077;-69
2022/04/22 01:47:46;;;;;;;8.98;5.47;;;;;;;11.30;88.74;100991.44;5092954;28;20449;-69
2022/04/22 01:50:12;;;;;;;13.32;5.53;;;;;;;11.20;89.02;100994.75;5093668;28;20148;-69
2022/04/22 01:52:39;;;;;;;10.60;6.70;;;;;;;11.17;90.08;100994.72;5094492;28;20032;-69
2022/04/22 01:55:05;;;;;;;7.45;5.30;;;;;;;11.19;90.16;100990.34;5092831;28;20032;-70
2022/04/22 01:57:30;;;;;;;9.40;5.57;;;;;;;11.26;89.94;100987.84;5095047;28;20035;-70
2022/04/22 01:59:58;;;;;;;8.23;5.50;;;;;;;11.28;89.65;100993.13;5094672;28;20020;-70
2022/04/22 02:02:23;;;;;;;9.57;5.90;;;;;;;11.19;90.04;100990.34;5093102;28;20031;-69
2022/04/22 02:04:49;;;;;;;7.63;5.60;;;;;;;11.26;89.22;100981.72;5092761;28;20020;-69
2022/04/22 02:07:14;;;;;;;8.82;5.28;;;;;;;11.10;90.22;100981.44;5094497;28;20452;-69
2022/04/22 02:09:39;;;;;;;9.75;6.80;;;;;;;11.07;90.91;100980.50;5094233;28;20016;-69
2022/04/22 02:12:06;;;;;;;11.10;6.45;;;;;;;11.09;90.28;100974.38;5092941;28;20015;-69
2022/04/22 02:14:33;;;;;;;11.20;6.03;;;;;;;11.00;91.28;100976.91;5094553;28;20383;-69
2022/04/22 02:16:59;;;;;;;12.18;5.78;;;;;;;11.01;91.02;100976.00;5093095;28;20479;-68
2022/04/22 02:19:25;;;;;;;10.85;6.03;;;;;;;10.99;92.00;100967.22;5094015;28;20036;-69
2022/04/22 02:21:51;;;;;;;8.63;5.80;;;;;;;11.04;91.34;100960.28;5093919;28;20408;-70
2022/04/22 02:24:16;;;;;;;7.75;5.72;;;;;;;10.90;92.20;100960.03;5093628;28;20024;-69
2022/04/22 02:29:26;;;;;;;;;;;;;;;10.91;92.35;100948.66;5094943;28;20472;-69
2022/04/22 02:31:52;;;;;;;16.63;6.75;;;;;;;10.82;92.84;100952.88;5093159;28;19995;-69
2022/04/22 02:34:19;;;;;;;9.65;6.50;;;;;;;10.83;92.58;100952.91;5093638;28;20062;-69
2022/04/22 02:36:45;;;;;;;9.38;5.97;;;;;;;10.87;92.50;100957.34;5092331;28;20024;-69
2022/04/22 02:39:10;;;;;;;7.32;5.90;;;;;;;10.83;92.85;100954.66;5094297;28;20036;-70
2022/04/22 02:47:03;;;;;;;12.82;5.97;;;;;;;10.82;93.70;100956.38;5091092;28;20412;-70
2022/04/22 02:49:29;;;;;;;9.00;6.60;;;;;;;10.75;93.72;100959.78;5092814;28;20110;-69
2022/04/22 02:51:54;;;;;;;14.07;6.03;;;;;;;10.76;95.15;100949.28;5087242;28;20068;-69
2022/04/22 02:54:20;;;;;;;8.32;5.90;;;;;;;10.78;94.47;100952.84;5094518;28;20032;-69
2022/04/22 02:56:45;;;;;;;8.57;5.68;;;;;;;10.79;94.95;100951.06;5092405;28;20024;-69
2022/04/22 02:59:10;;;;;;;10.95;7.05;;;;;;;10.75;95.22;100944.84;5093469;28;20043;-69
2022/04/22 03:01:36;;;;;;;10.07;5.80;;;;;;;10.74;96.12;100950.09;5092577;28;20085;-70
2022/04/22 03:04:03;;;;;;;10.40;5.88;;;;;;;10.70;95.57;100945.66;5092067;28;20031;-69
2022/04/22 03:06:29;;;;;;;11.02;6.20;;;;;;;10.72;96.00;100942.19;5091921;28;20032;-70
2022/04/22 03:08:54;;;;;;;7.80;5.63;;;;;;;10.69;96.44;100947.41;5092822;28;20043;-69
2022/04/22 03:11:21;;;;;;;11.93;6.57;;;;;;;10.72;97.18;100939.56;5094004;28;20027;-69
2022/04/22 03:13:49;;;;;;;10.52;6.43;;;;;;;10.70;97.83;100938.66;5091564;28;20036;-69
2022/04/22 03:16:16;;;;;;;8.65;5.68;;;;;;;10.70;98.33;100949.19;5092113;28;20094;-69
2022/04/22 03:18:41;;;;;;;11.85;5.72;;;;;;;10.62;99.53;100942.88;5091306;28;20051;-69
2022/04/22 03:21:07;;;;;;;11.60;5.70;;;;;;;10.65;99.49;100942.94;5093337;28;20387;-69
2022/04/22 03:23:33;;;;;;;7.05;5.00;;;;;;;10.63;99.63;100936.75;5091628;28;20486;-69
2022/04/22 03:25:58;;;;;;;7.43;5.38;;;;;;;10.53;100.00;100940.97;5092999;28;20027;-69
2022/04/22 03:28:24;;;;;;;9.95;5.47;;;;;;;10.52;100.00;100938.31;5092724;28;20479;-69
2022/04/22 03:30:50;;;;;;;9.93;5.68;;;;;;;10.51;100.00;100940.03;5092202;28;20035;-69
2022/04/22 03:33:17;;;;;;;9.15;5.82;;;;;;;10.53;100.00;100934.84;5092153;28;20024;-69
2022/04/22 03:35:43;;;;;;;12.80;5.30;;;;;;;10.56;100.00;100935.75;5093170;28;20020;-69
2022/04/22 03:38:11;;;;;;;10.02;5.45;;;;;;;10.48;100.00;100932.09;5093069;28;20016;-69
2022/04/22 03:40:36;;;;;;;7.72;5.38;;;;;;;10.46;100.00;100933.84;5090424;28;20040;-69
2022/04/22 03:43:01;;;;;;;10.13;5.38;;;;;;;10.52;100.00;100933.06;5092633;28;20024;-69
2022/04/22 03:45:27;;;;;;;7.15;5.22;;;;;;;10.41;100.00;100924.97;5090651;28;20078;-69
2022/04/22 03:47:52;;;;;;;8.20;5.30;;;;;;;10.44;100.00;100931.19;5091817;28;20050;-70
2022/04/22 03:50:17;;;;;;;8.63;5.50;;;;;;;10.40;100.00;100929.31;5090761;28;20103;-70
2022/04/22 03:52:43;;;;;;;8.45;5.22;;;;;;;10.41;100.00;100925.84;5092855;28;20023;-70
2022/04/22 03:55:09;;;;;;;6.95;5.72;;;;;;;10.39;100.00;100931.91;5093263;28;20022;-69
2022/04/22 04:00:18;;;;;;;8.13;5.60;;;;;;;10.25;100.00;100932.50;5090673;28;20051;-69
2022/04/22 04:02:43;;;;;;;12.88;6.03;;;;;;;10.38;100.00;100925.78;5089453;28;20024;-69
2022/04/22 04:05:09;;;;;;;9.65;6.45;;;;;;;10.33;100.00;100922.16;5091813;28;20055;-69
2022/04/22 04:07:34;;;;;;;9.63;6.07;;;;;;;10.38;100.00;100930.19;5090925;28;20027;-69
2022/04/22 04:18:11;;;;;;;;;;;;;;;10.25;100.00;100923.75;5087733;28;20571;-69
2022/04/22 04:23:20;;;;;;;14.88;6.63;;;;;;;10.21;100.00;100922.78;5091204;28;20288;-69
2022/04/22 04:25:50;;;;;;;11.40;6.72;;;;;;;10.19;100.00;100921.00;5092354;28;20107;-69
2022/04/22 04:28:17;;;;;;;12.65;7.00;;;;;;;10.07;100.00;100919.03;5091769;28;20032;-68
2022/04/22 04:30:43;;;;;;;12.35;7.07;;;;;;;10.11;100.00;100921.72;5089978;28;20112;-69
2022/04/22 04:33:10;;;;;;;8.88;7.07;;;;;;;10.13;100.00;100924.38;5089777;28;20020;-69
2022/04/22 04:35:37;;;;;;;10.82;6.82;;;;;;;10.15;100.00;100934.94;5092506;28;20456;-69
2022/04/22 04:38:03;;;;;;;12.68;7.32;;;;;;;10.05;100.00;100926.88;5090878;28;20399;-69
2022/04/22 04:40:28;;;;;;;9.65;6.93;;;;;;;10.19;100.00;100928.91;5092260;28;20031;-68
2022/04/22 04:42:54;;;;;;;10.68;7.72;;;;;;;10.12;100.00;100930.53;5091903;28;20043;-68
2022/04/22 04:45:20;;;;;;;11.23;7.32;;;;;;;10.05;100.00;100934.78;5091743;28;20028;-68
2022/04/22 04:47:46;;;;;;;13.70;7.80;;;;;;;10.07;100.00;100930.41;5087862;28;20024;-68
2022/04/22 04:50:12;;;;;;;11.88;7.45;;;;;;;10.04;100.00;100938.25;5091631;28;20051;-68
2022/04/22 04:52:38;;;;;;;9.98;6.60;;;;;;;10.07;100.00;100938.31;5091943;28;20028;-68
2022/04/22 04:55:05;;;;;;;12.18;7.65;;;;;;;9.98;100.00;100940.75;5092559;28;20539;-68
2022/04/22 04:57:31;;;;;;;10.55;7.13;;;;;;;10.04;100.00;100946.13;5090700;28;20119;-69
2022/04/22 04:59:56;;;;;;;8.65;7.18;;;;;;;10.07;100.00;100938.31;5090881;28;20188;-70
2022/04/22 05:02:22;;;;;;;11.60;7.25;;;;;;;10.11;100.00;100937.50;5089431;28;20537;-72
2022/04/22 05:04:47;;;;;;;9.38;6.90;;;;;;;10.12;100.00;100933.16;5090236;28;20118;-69
2022/04/22 05:07:12;;;;;;;9.57;7.38;;;;;;;10.15;100.00;100937.56;5090352;28;20020;-70
2022/04/22 05:09:38;;;;;;;9.65;7.07;;;;;;;10.17;100.00;100934.09;5091659;28;20407;-70
2022/04/22 05:12:03;;;;;;;12.07;7.95;;;;;;;10.08;100.00;100931.31;5091838;28;20028;-70
2022/04/22 05:14:29;;;;;;;12.50;8.05;;;;;;;10.12;100.00;100931.41;5091652;28;20107;-69
2022/04/22 05:16:54;;;;;;;9.45;7.53;;;;;;;10.13;100.00;100930.56;5091635;28;20051;-70
2022/04/22 05:19:21;;;;;;;11.05;7.63;;;;;;;10.12;100.00;100926.13;5088230;28;20039;-69
2022/04/22 05:21:47;;;;;;;11.57;7.85;;;;;;;10.10;100.00;100925.22;5090069;28;20034;-70
2022/04/22 05:24:12;;;;;;;9.30;7.53;;;;;;;10.09;100.00;100927.81;5090327;28;20115;-71
2022/04/22 05:26:38;;;;;;;13.15;8.25;;;;;;;10.14;100.00;100926.16;5091786;28;20544;-71
2022/04/22 05:29:03;;;;;;;15.73;8.20;;;;;;;10.11;100.00;100932.25;5090289;28;20123;-72
2022/04/22 05:34:12;;;;;;;15.38;7.63;;;;;;;10.09;100.00;100930.44;5089740;28;20062;-72
2022/04/22 05:36:38;;;;;;;9.57;8.40;;;;;;;10.05;100.00;100933.88;5089849;28;20028;-72
2022/04/22 05:39:07;;;;;;;11.23;8.80;;;;;;;10.08;100.00;100940.09;5093000;28;20058;-72
2022/04/22 05:41:32;;;;;;;12.27;8.48;;;;;;;10.13;100.00;100932.28;5092878;28;20099;-71
2022/04/22 05:43:57;;;;;;;10.88;7.95;;;;;;;10.15;100.00;100942.81;5094213;28;20107;-71
2022/04/22 05:46:23;;;;;;;13.13;9.23;;;;;;;10.17;100.00;100935.88;5093545;28;20103;-71
2022/04/22 05:48:48;;;;;;;13.73;9.27;;;;;;;10.19;100.00;100944.69;5094939;28;20052;-71
2022/04/22 05:51:15;;;;;;;18.00;9.00;;;;;;;10.19;100.00;100939.44;5095305;28;20024;-70
2022/04/22 05:53:44;;;;;;;10.63;8.05;;;;;;;10.08;100.00;100940.09;5092857;28;20027;-71
2022/04/22 05:56:09;;;;;;;11.15;8.77;;;;;;;10.19;100.00;100937.66;5093378;28;20034;-72
2022/04/22 05:58:35;;;;;;;14.30;8.85;;;;;;;10.33;100.00;100947.56;5090922;28;20027;-72
2022/04/22 06:01:00;;;;;;;12.45;8.45;;;;;;;10.25;100.00;100944.78;5089913;28;20131;-70
2022/04/22 06:03:26;;;;;;;13.10;9.73;;;;;;;10.26;100.00;100949.19;5092467;28;20027;-73
2022/04/22 06:05:51;;;;;;;14.45;9.32;;;;;;;10.39;100.00;100943.34;5087673;28;20445;-73
2022/04/22 06:11:01;;;;;;;16.88;10.70;;;;;;;10.50;100.00;100940.00;5095219;28;20109;-72
2022/04/22 06:13:26;;;;;;;16.50;9.77;;;;;;;10.45;100.00;100940.81;5093759;28;20055;-71
2022/04/22 06:15:51;;;;;;;17.65;9.85;;;;;;;10.54;100.00;100931.31;5092507;28;20032;-71
2022/04/22 06:18:17;;;;;;;15.15;10.13;;;;;;;10.56;100.00;100934.88;5090320;28;20123;-71
2022/04/22 06:20:42;;;;;;;16.88;9.82;;;;;;;10.57;100.00;100934.03;5092696;28;20036;-71
2022/04/22 06:23:07;;;;;;;12.57;8.90;;;;;;;10.57;100.00;100931.41;5089524;28;20426;-71
2022/04/22 06:25:33;;;;;;;20.52;10.55;;;;;;;10.58;100.00;100939.31;5087382;28;20036;-71
2022/04/22 06:27:58;;;;;;;15.93;9.55;;;;;;;10.64;100.00;100925.38;5086478;28;20051;-72
2022/04/22 06:30:24;;;;;;;16.85;11.23;;;;;;;10.69;100.00;100926.34;5088171;28;20060;-71
2022/04/22 06:32:53;;;;;;;15.73;10.82;;;;;;;10.77;100.00;100924.72;5094232;28;20028;-72
2022/04/22 06:35:19;;;;;;;15.05;10.65;;;;;;;10.80;100.00;100908.97;5089383;28;20106;-72
2022/04/22 06:37:47;;;;;;;19.23;10.77;;;;;;;10.83;100.00;100918.69;5093840;28;20024;-71
2022/04/22 06:45:46;;;;;;;21.88;11.60;;;;;;;10.88;100.00;100913.47;5089980;28;20070;-72
2022/04/22 06:48:12;;;;;;;15.10;11.32;;;;;;;10.83;100.00;100918.69;5093094;28;20829;-72
2022/04/22 06:50:38;;;;;;;17.65;11.32;;;;;;;10.85;100.00;100913.44;5092394;28;20481;-73
2022/04/22 06:53:03;;;;;;;16.52;11.40;;;;;;;11.00;100.00;100926.88;5094738;28;20103;-72
2022/04/22 06:55:29;;;;;;;17.50;11.65;;;;;;;11.04;100.00;100923.41;5094101;28;20024;-71
2022/04/22 06:57:57;;;;;;;18.20;11.48;;;;;;;11.12;100.00;100924.41;5094672;28;20028;-73
2022/04/22 07:00:22;;;;;;;18.25;11.85;;;;;;;11.09;100.00;100915.56;5091077;28;20024;-73
2022/04/22 07:02:48;;;;;;;15.93;11.02;;;;;;;11.16;100.00;100906.91;5087968;28;20042;-73
2022/04/22 07:05:14;;;;;;;19.70;12.15;;;;;;;11.13;100.00;100917.41;5091761;28;20493;-72
2022/04/22 07:07:40;;;;;;;16.45;11.57;;;;;;;11.23;100.00;100914.06;5089983;28;20024;-72
2022/04/22 07:10:05;;;;;;;18.35;12.73;;;;;;;11.34;99.89;100911.56;5094424;28;20016;-73
2022/04/22 07:12:32;;;;;;;19.25;12.32;;;;;;;11.33;100.00;100914.16;5093040;28;20077;-73
2022/04/22 07:15:04;;;;;;;22.95;13.00;;;;;;;11.33;100.00;100912.44;5094103;28;20113;-73
2022/04/22 07:17:32;;;;;;;20.73;11.77;;;;;;;11.47;100.00;100918.75;5094106;28;20071;-72
2022/04/22 07:19:58;;;;;;;21.08;12.32;;;;;;;11.47;99.98;100918.75;5093956;28;20027;-73
2022/04/22 07:22:24;;;;;;;18.98;11.65;;;;;;;11.48;99.03;100912.63;5092372;28;20012;-72
2022/04/22 07:24:49;;;;;;;18.10;11.60;;;;;;;11.51;98.96;100909.16;5108886;28;20107;-73
2022/04/22 07:27:18;;;;;;;23.95;12.38;;;;;;;11.61;98.33;100899.63;5093988;28;20031;-74
2022/04/22 07:29:44;;;;;;;21.05;12.10;;;;;;;11.60;98.37;100906.66;5093080;28;20547;-73
2022/04/22 07:32:10;;;;;;;22.10;12.57;;;;;;;11.69;98.20;100902.38;5091543;28;20532;-73
2022/04/22 07:34:36;;;;;;;22.08;12.52;;;;;;;11.62;98.66;100907.56;5093212;28;20032;-73
2022/04/22 07:37:01;;;;;;;19.88;12.38;;;;;;;11.64;99.19;100905.84;5075513;28;20028;-73
2022/04/22 07:39:27;;;;;;;24.25;12.63;;;;;;;11.75;98.39;100898.06;5093528;28;20379;-73
2022/04/22 07:41:56;;;;;;;16.52;11.43;;;;;;;11.93;97.35;100901.78;5075094;28;20028;-74
2022/04/22 07:47:09;;;;;;;17.85;11.98;;;;;;;11.98;95.87;100895.72;5093548;28;20034;-73
2022/04/22 07:49:35;;;;;;;23.95;11.45;;;;;;;12.04;95.55;100901.94;5091998;28;20028;-74
2022/04/22 07:52:00;;;;;;;15.98;11.25;;;;;;;12.16;95.46;100899.44;5093566;28;20384;-74
2022/04/22 07:54:26;;;;;;;22.20;12.15;;;;;;;12.14;95.23;100896.81;5093297;28;20024;-74
2022/04/22 07:56:52;;;;;;;22.95;11.88;;;;;;;12.31;94.60;100904.00;5085990;28;20028;-73
2022/04/22 07:59:17;;;;;;;21.40;11.68;;;;;;;12.27;94.09;100902.19;5085986;28;20375;-72
2022/04/22 08:01:43;;;;;;;15.95;10.95;;;;;;;12.41;93.08;100903.25;5092547;28;20023;-71
2022/04/22 08:04:10;;;;;;;16.70;10.20;;;;;;;12.48;93.51;100891.00;5093173;28;20028;-71
2022/04/22 08:06:36;;;;;;;14.70;9.85;;;;;;;12.70;92.12;100893.81;5093166;28;20417;-72
2022/04/22 08:09:01;;;;;;;17.77;10.13;;;;;;;12.64;91.97;100897.28;5093043;28;20073;-72
2022/04/22 08:11:27;;;;;;;14.93;10.52;;;;;;;12.69;91.52;100894.69;5092947;28;20073;-71
2022/04/22 08:13:53;;;;;;;18.55;10.75;;;;;;;12.84;91.54;100883.38;5087085;28;20024;-72
2022/04/22 08:16:18;;;;;;;17.58;10.73;;;;;;;12.80;92.79;100888.63;5087581;28;20027;-71
2022/04/22 08:18:43;;;;;;;20.50;10.75;;;;;;;12.87;90.50;100892.19;5092795;28;20040;-72
2022/04/22 08:21:10;;;;;;;15.40;10.70;;;;;;;12.93;90.22;100886.97;5091737;28;20052;-72
2022/04/22 08:23:35;;;;;;;17.77;11.30;;;;;;;13.08;89.67;100886.19;5091706;28;20039;-71
2022/04/22 08:26:01;;;;;;;15.55;9.80;;;;;;;12.98;88.41;100887.88;5092826;28;20024;-72
2022/04/22 08:28:26;;;;;;;15.23;10.52;;;;;;;13.07;88.54;100884.41;5092129;28;20020;-73
2022/04/22 08:30:51;;;;;;;14.55;11.07;;;;;;;13.22;90.01;100895.97;5092025;28;20429;-72
2022/04/22 08:33:16;;;;;;;13.40;10.27;;;;;;;13.41;88.08;100881.13;5091871;28;20031;-72
2022/04/22 08:35:42;;;;;;;15.10;10.35;;;;;;;13.45;87.47;100882.91;5092823;28;20035;-73
2022/04/22 08:38:07;;;;;;;16.70;11.13;;;;;;;13.62;87.63;100870.66;5091452;28;20067;-72
2022/04/22 08:40:39;;;;;;;20.42;11.82;;;;;;;13.65;87.09;100875.97;5092644;28;20157;-72
2022/04/22 08:43:06;;;;;;;15.30;10.45;;;;;;;13.76;87.21;100870.72;5092665;28;20031;-72
2022/04/22 08:45:33;;;;;;;21.40;11.05;;;;;;;13.80;84.72;100864.56;5091756;28;20365;-73
2022/04/22 08:50:46;;;;;;;16.50;9.57;;;;;;;14.08;83.88;100851.44;5091014;28;20074;-72
2022/04/22 08:53:20;;;;;;;18.67;10.27;;;;;;;14.19;84.28;100855.84;5092073;28;20027;-72
2022/04/22 08:55:46;;;;;;;13.82;9.20;;;;;;;14.24;83.15;100862.03;5092707;28;20380;-73
2022/04/22 08:58:13;;;;;;;13.27;9.30;;;;;;;14.40;82.44;100850.56;5091677;28;20027;-72
2022/04/22 09:00:41;;;;;;;20.30;9.93;;;;;;;14.46;80.07;100845.28;5091046;28;20024;-73
2022/04/22 09:03:06;;;;;;;13.40;8.23;;;;;;;14.72;80.56;100852.41;5091321;28;20023;-72
2022/04/22 09:05:34;;;;;;;15.07;8.68;;;;;;;15.00;80.51;100841.75;5091085;28;20398;-73
2022/04/22 09:08:00;;;;;;;14.52;9.65;;;;;;;14.98;79.73;100838.25;5092506;28;20020;-72
2022/04/22 09:10:26;;;;;;;11.88;9.30;;;;;;;15.12;79.99;100838.19;5092627;28;20078;-72
2022/04/22 09:12:54;;;;;;;14.27;9.00;;;;;;;15.21;77.72;100827.59;5092925;28;20036;-71
2022/04/22 09:15:24;;;;;;;15.70;8.50;;;;;;;15.31;76.70;100818.72;5094949;28;20023;-72
2022/04/22 09:17:49;;;;;;;13.25;8.82;;;;;;;15.20;77.55;100822.28;5096166;28;20066;-71
2022/04/22 09:20:15;;;;;;;16.48;9.07;;;;;;;15.21;74.40;100827.59;5075316;28;20028;-72
2022/04/22 09:22:44;;;;;;;12.52;8.30;;;;;;;15.20;73.99;100815.22;5093240;28;20027;-71
2022/04/22 09:25:09;;;;;;;15.45;8.20;;;;;;;15.14;75.27;100816.13;5092820;28;20035;-74
2022/04/22 09:27:42;;;;;;;13.43;8.88;;;;;;;15.12;74.70;100820.53;5091883;28;20032;-71
2022/04/22 09:30:11;;;;;;;12.95;7.85;;;;;;;15.29;72.67;100814.31;5086120;28;20471;-72
2022/04/22 09:32:39;;;;;;;14.48;8.70;;;;;;;15.46;72.55;100815.13;5092923;28;20020;-71
2022/04/22 09:35:16;;;;;;;11.27;8.05;;;;;;;15.59;71.61;100812.41;5094144;28;20024;-71
2022/04/22 09:43:37;;;;;;;9.98;8.00;;;;;;;16.02;69.54;100801.59;5090861;28;20726;-71
2022/04/22 09:46:03;;;;;;;14.63;7.75;;;;;;;16.18;69.92;100800.59;5106432;28;20511;-71
2022/04/22 09:48:44;;;;;;;13.18;8.98;;;;;;;16.17;70.09;100797.97;5106096;28;20035;-72
2022/04/22 09:51:24;;;;;;;11.63;7.88;;;;;;;16.37;70.11;100796.91;5089051;28;20039;-71
2022/04/22 09:54:02;;;;;;;13.27;7.10;;;;;;;16.59;66.57;100789.63;5093457;28;20118;-72
2022/04/22 09:56:28;;;;;;;15.30;8.18;;;;;;;16.52;65.87;100788.81;5094895;28;20047;-72
2022/04/22 09:58:53;;;;;;;10.73;7.30;;;;;;;16.58;66.28;100778.13;5095370;28;20058;-72
2022/04/22 10:01:19;;;;;;;20.48;7.28;;;;;;;16.73;65.08;100769.13;5095445;28;20028;-72
2022/04/22 10:03:45;;;;;;;14.25;7.63;;;;;;;16.82;64.71;100776.13;5097896;28;20107;-73
2022/04/22 10:06:10;;;;;;;15.18;7.18;;;;;;;16.88;64.29;100777.84;5094506;28;20467;-73
2022/04/22 10:08:36;;;;;;;19.88;6.88;;;;;;;16.94;62.32;100767.16;5094142;28;20027;-72
2022/04/22 10:11:06;;;;;;;14.18;7.07;;;;;;;16.98;62.21;100771.56;5095585;28;20065;-72
2022/04/22 10:13:46;;;;;;;25.30;8.00;;;;;;;16.97;63.02;100777.75;5094186;28;20540;-73
2022/04/22 10:16:12;;;;;;;13.65;6.72;;;;;;;17.08;61.59;100773.22;5087295;28;20031;-72
2022/04/22 10:18:39;;;;;;;17.98;7.03;;;;;;;17.24;61.20;100773.03;5095141;28;20040;-73
2022/04/22 10:21:04;;;;;;;11.60;7.55;;;;;;;17.30;63.14;100767.66;5096457;28;20480;-71
2022/04/22 10:23:30;;;;;;;12.18;6.43;;;;;;;17.51;63.34;100766.47;5094249;28;20031;-72
2022/04/22 10:25:59;;;;;;;17.65;7.30;;;;;;;17.53;61.78;100770.88;5093617;28;20039;-73
2022/04/22 10:28:26;;;;;;;13.93;6.80;;;;;;;17.78;62.60;100759.88;5094923;28;20460;-73
2022/04/22 10:30:54;;;;;;;9.05;6.78;;;;;;;17.72;61.06;100765.31;5094193;28;20368;-75
2022/04/22 10:33:27;;;;;;;12.05;6.72;;;;;;;17.87;59.85;100767.72;5090665;28;20029;-72
2022/04/22 10:35:59;;;;;;;10.63;7.07;;;;;;;17.73;60.08;100758.19;5087990;28;20035;-74
2022/04/22 10:38:38;;;;;;;11.65;7.20;;;;;;;18.02;59.31;100766.66;5094765;28;20073;-72
2022/04/22 10:41:17;;;;;;;14.10;6.65;;;;;;;18.03;57.42;100767.56;5091040;28;20093;-73
2022/04/22 10:47:13;;;;;;;9.18;6.55;;;;;;;18.00;59.35;100765.81;5093388;28;20165;-72
2022/04/22 10:49:16;;;;;;;15.73;6.55;;;;;;;18.31;59.42;100764.44;5094899;28;20069;-73
2022/04/22 10:52:11;;;;;;;7.82;6.00;;;;;;;18.61;58.18;100759.47;5094413;28;20085;-73
2022/04/22 10:54:52;;;;;;;8.85;6.10;;;;;;;18.75;57.76;100738.78;5087358;28;20518;-72
2022/04/22 10:57:32;;;;;;;9.57;6.07;;;;;;;18.84;57.09;100748.38;5091741;28;20092;-73
2022/04/22 11:00:07;;;;;;;8.40;6.00;;;;;;;19.01;54.57;100737.44;5092635;28;20387;-73
2022/04/22 11:02:37;;;;;;;8.68;5.28;;;;;;;19.05;53.57;100736.44;5090665;28;20407;-72
2022/04/22 11:05:22;;;;;;;9.00;5.93;;;;;;;19.15;53.54;100730.03;5104616;28;20028;-72
2022/04/22 11:07:51;;;;;;;8.52;5.90;;;;;;;19.35;55.01;100739.38;5104679;28;20028;-72
2022/04/22 11:10:20;;;;;;;9.10;6.05;;;;;;;19.17;56.25;100741.53;5088657;28;20554;-73
2022/04/22 11:12:54;;;;;;;7.72;6.65;;;;;;;19.41;55.97;100738.38;5080993;28;20092;-72
2022/04/22 11:15:46;;;;;;;10.85;5.43;;;;;;;19.53;55.39;100746.09;5091298;28;20086;-73
2022/04/22 11:18:13;;;;;;;14.27;6.03;;;;;;;19.79;54.57;100731.28;5091577;28;20028;-73
2022/04/22 11:20:43;;;;;;;14.35;6.15;;;;;;;20.02;55.07;100726.31;5091211;28;20391;-72
2022/04/22 11:23:13;;;;;;;9.13;6.13;;;;;;;20.01;53.86;100727.22;5091894;28;20720;-72
2022/04/22 11:25:40;;;;;;;18.73;6.30;;;;;;;19.91;54.69;100722.13;5092634;28;20031;-72
2022/04/22 11:28:08;;;;;;;10.02;6.40;;;;;;;19.77;55.05;100727.78;5093092;28;20379;-72
2022/04/22 11:30:33;;;;;;;9.10;6.32;;;;;;;20.09;53.50;100724.38;5093306;28;20052;-71
2022/04/22 11:33:21;;;;;;;10.68;6.03;;;;;;;19.88;55.30;100723.94;5091704;28;20443;-71
2022/04/22 11:35:50;;;;;;;11.93;5.70;;;;;;;20.05;54.32;100706.66;5091739;28;20080;-72
2022/04/22 11:38:16;;;;;;;8.02;5.57;;;;;;;19.90;51.54;100709.69;5092255;28;20035;-72
2022/04/22 11:40:44;;;;;;;10.38;5.72;;;;;;;19.76;52.24;100718.00;5091823;28;20016;-73
2022/04/22 11:43:11;;;;;;;9.38;5.50;;;;;;;19.96;50.55;100704.22;5092329;28;20097;-72
2022/04/22 11:45:39;;;;;;;11.63;6.15;;;;;;;19.26;50.79;100704.91;5095256;28;20023;-72
2022/04/22 11:48:19;;;;;;;7.60;5.60;;;;;;;19.06;53.91;100715.97;5084554;28;20031;-72
2022/04/22 11:50:46;;;;;;;8.98;5.78;;;;;;;19.09;55.98;100713.28;5087741;28;20031;-72
2022/04/22 11:53:14;;;;;;;6.88;5.35;;;;;;;19.69;50.33;100711.94;5092206;28;20027;-71
2022/04/22 11:55:43;;;;;;;12.65;5.43;;;;;;;19.91;49.16;100700.78;5093310;28;20028;-72
2022/04/22 11:58:12;;;;;;;9.98;4.90;;;;;;;19.83;50.15;100701.84;5091577;28;20487;-72
2022/04/22 12:06:17;;;;;;;9.73;5.80;;;;;;;18.17;56.16;100709.59;5089281;28;20039;-71
2022/04/22 12:09:00;;;;;;;9.57;5.07;;;;;;;17.90;55.46;100704.72;5091904;28;20403;-72
2022/04/22 12:11:26;;;;;;;9.07;4.90;;;;;;;17.72;56.33;100706.75;5089173;28;20039;-71
2022/04/22 12:13:53;;;;;;;7.60;5.45;;;;;;;18.39;56.35;100709.22;5093091;28;20653;-72